This is the latest recevied weather packets stored in our database for station/object WM1X. If no packets are shown the sender has not sent any weather packets the latest 10 day(s).
| Time | Temp. | Humidity | Pressure | Rain* | Wind** | Luminosity | Snow |
|---|---|---|---|---|---|---|---|
| 1777740904 | 8.89° C | 85% | 1011.1 hPa | 0 mm | - | - | - |
| 1777740304 | 10° C | 82% | 1011.1 hPa | 0 mm | - | - | - |
| 1777725904 | 6.67° C | 97% | 1012.5 hPa | 0.25 mm | - | - | - |
| 1777724704 | 6.11° C | 96% | 1012.9 hPa | 0.25 mm | - | - | - |
| 1777718104 | 6.11° C | 94% | 1012 hPa | 0.25 mm | - | - | - |
| 1777709704 | 6.67° C | 86% | 1011.9 hPa | 0.25 mm | - | - | - |
| 1777703704 | 8.33° C | 73% | 1012.3 hPa | 0 mm | - | - | - |
| 1777701305 | 8.33° C | 68% | 1012.1 hPa | 0 mm | - | - | - |
| 1777698904 | 6.67° C | 77% | 1012.1 hPa | 0 mm | - | - | - |
| 1777695903 | 6.67° C | 81% | 1012.2 hPa | 0 mm | - | - | - |
| 1777688104 | 5.56° C | 76% | 1011.9 hPa | 0 mm | - | - | - |
| 1777676704 | 13.33° C | 39% | 1010.1 hPa | 0 mm | - | - | - |
| 1777676104 | 13.33° C | 38% | 1010.1 hPa | 0 mm | - | - | - |
| 1777674905 | 13.33° C | 38% | 1010.1 hPa | 0 mm | - | - | - |
| 1777670703 | 13.89° C | 35% | 1009.9 hPa | 0 mm | - | - | - |
| 1777665904 | 12.78° C | 38% | 1009.3 hPa | 0 mm | - | - | - |
| 1777664704 | 12.78° C | 40% | 1009.4 hPa | 0 mm | - | - | - |
| 1777662904 | 12.78° C | 39% | 1009.7 hPa | 0 mm | - | - | - |
| 1777659904 | 12.22° C | 40% | 1010.1 hPa | 0 mm | - | - | - |
| 1777652704 | 10° C | 52% | 1010.4 hPa | 0 mm | - | - | - |
| 1777647904 | 8.33° C | 59% | 1011 hPa | 0 mm | - | - | - |
| 1777636504 | 5.56° C | 74% | 1010.4 hPa | 0 mm | - | - | - |
| 1777632304 | 4.44° C | 88% | 1009.8 hPa | 0 mm | - | - | - |
| 1777631704 | 4.44° C | 89% | 1009.9 hPa | 0 mm | - | - | - |
| 1777631103 | 4.44° C | 90% | 1009.8 hPa | 0 mm | - | - | - |
* Rain latest hour (hover to see other rain measurements)
** Current wind speed in m/s (hover to see current wind gust speed)